Flight Track Log - Related Links

Times and Time Zones

All times are in EST time to prevent confusion due to time zone crossing. See the N207AH flight status page for this flight to view local times or setup timezone preferences in your user account.

Time Position Orientation Groundspeed Altitude Reporting Facility
EST Latitude Longitude Course Direction KTS MPH feet Rate Location/Type
Tue 01:59:41 PM 40.9044 -85.2342 153° Southeast 247 284 4,500  Level Chicago Center
Tue 02:00:43 PM 40.8297 -85.1919 157° South 287 330 8,800 3,774 Climbing Chicago Center
Tue 02:01:45 PM 40.7483 -85.1397 154° Southeast 312 359 12,300 3,220 Climbing Chicago Center
Tue 02:02:46 PM 40.6608 -85.0814 153° Southeast 341 392 15,400 2,927 Climbing Chicago Center
Tue 02:03:48 PM 40.5631 -85.0339 160° South 355 409 18,300 2,371 Climbing Chicago Center
Tue 02:04:50 PM 40.4656 -84.9956 163° South 363 418 20,300 1,984 Climbing Chicago Center
Tue 02:05:00 PM 40.4266 -84.8464 153° Southeast  Level Estimated
Tue 02:05:52 PM 40.3358 -84.9417 162° South 400 460 22,400  Level Chicago Center
Tue 02:06:53 PM 40.2258 -84.8894 160° South 416 479 24,400 1,902 Climbing Chicago Center
Tue 02:07:55 PM 40.1156 -84.8383 160° South 420 483 26,300 1,790 Climbing Chicago Center
Tue 02:08:57 PM 40.0053 -84.7872 160° South 421 484 28,100 1,500 Climbing Chicago Center
Tue 02:09:59 PM 39.8933 -84.7331 160° South 426 490 29,400 1,122 Climbing Chicago Center
Tue 02:11:00 PM 39.7781 -84.6797 160° South 435 501 30,400 976 Climbing Chicago Center
Tue 02:12:02 PM 39.6611 -84.6269 161° South 443 510 31,400 1,047 Climbing Chicago Center
Tue 02:13:29 PM 39.4728 -84.5358 160° South 452 520 33,000 1,087 Climbing Indianapolis Center
Tue 02:14:31 PM 39.3556 -84.4583 153° Southeast 468 539 34,100 1,016 Climbing Indianapolis Center
Tue 02:15:33 PM 39.2406 -84.3836 153° Southeast 468 539 35,100 919 Climbing Indianapolis Center
Tue 02:16:35 PM 39.1275 -84.3114 154° Southeast 459 528 36,000 968 Climbing Indianapolis Center
Tue 02:17:37 PM 39.0144 -84.2383 153° Southeast 457 526 37,100 1,122 Climbing Indianapolis Center
Tue 02:18:38 PM 38.8814 -84.1542 154° Southeast 451 519 38,300 1,073 Climbing Indianapolis Center
Tue 02:19:40 PM 38.7744 -84.0864 154° Southeast 437 503 39,300 919 Climbing Indianapolis Center
Tue 02:20:42 PM 38.6706 -84.0206 154° Southeast 423 487 40,200 677 Climbing Indianapolis Center
Tue 02:21:44 PM 38.5586 -83.9478 153° Southeast 416 479 40,700 387 Climbing Indianapolis Center
Tue 02:22:46 PM 38.4553 -83.8842 154° Southeast 415 478 41,000 145 Climbing Indianapolis Center
Tue 02:23:48 PM 38.3517 -83.8164 153° Southeast 414 476 41,000  Level Indianapolis Center
Tue 02:24:50 PM 38.2436 -83.7489 154° Southeast 424 488 41,000  Level Indianapolis Center
Tue 02:25:52 PM 38.1342 -83.6817 154° Southeast 432 497 41,000  Level Indianapolis Center
Tue 02:26:54 PM 38.0222 -83.6103 153° Southeast 444 511 41,000  Level Indianapolis Center
Tue 02:27:55 PM 37.8906 -83.5283 154° Southeast 448 516 41,000  Level Indianapolis Center
Tue 02:28:57 PM 37.7772 -83.4550 153° Southeast 452 520 41,000  Level Indianapolis Center
Tue 02:29:59 PM 37.6606 -83.3833 154° Southeast 459 528 41,000  Level Indianapolis Center
Tue 02:31:01 PM 37.5433 -83.3103 154° Southeast 464 534 41,000  Level Indianapolis Center
Tue 02:32:03 PM 37.4256 -83.2383 154° Southeast 467 537 41,000  Level Indianapolis Center
Tue 02:33:05 PM 37.3072 -83.1656 154° Southeast 468 539 41,000  Level Indianapolis Center
Tue 02:34:07 PM 37.1689 -83.0814 154° Southeast 469 540 41,000  Level Indianapolis Center
Tue 02:35:09 PM 37.0508 -83.0089 154° Southeast 470 541 41,000  Level Indianapolis Center
Tue 02:36:11 PM 36.9458 -82.9456 154° Southeast 470 541 41,000  Level Indianapolis Center
Tue 02:37:13 PM 36.8039 -82.8586 154° Southeast 470 541 41,000  Level Indianapolis Center
Tue 02:38:15 PM 36.6875 -82.7900 155° Southeast 470 541 41,000  Level Indianapolis Center
Tue 02:39:17 PM 36.5706 -82.7200 154° Southeast 469 540 41,000  Level Indianapolis Center
Tue 02:40:18 PM 36.4539 -82.6494 154° Southeast 469 540 41,000  Level Indianapolis Center
Tue 02:41:20 PM 36.3364 -82.5803 155° Southeast 468 539 41,000  Level Indianapolis Center
Tue 02:42:23 PM 36.2014 -82.4992 154° Southeast 467 537 41,000  Level Indianapolis Center
Tue 02:43:25 PM 36.0842 -82.4300 155° Southeast 466 536 41,000  Level Indianapolis Center
Tue 02:44:27 PM 35.9672 -82.3611 155° Southeast 466 536 41,000 -269 Level Indianapolis Center
Tue 02:45:39 PM 35.8308 -82.2817 155° Southeast 465 535 40,400 -682 Descending Atlanta Center
Tue 02:46:39 PM 35.7111 -82.2178 157° South 474 545 39,500 -950 Descending Atlanta Center
Tue 02:47:39 PM 35.5847 -82.1414 154° Southeast 481 554 38,500 -1,000 Descending Atlanta Center
Tue 02:48:39 PM 35.4606 -82.0703 155° Southeast 492 566 37,500 -1,050 Descending Atlanta Center
Tue 02:49:39 PM 35.3342 -81.9969 155° Southeast 492 566 36,400 -1,250 Descending Atlanta Center
Tue 02:50:39 PM 35.1928 -81.9167 155° Southeast 500 575 35,000 -1,200 Descending Atlanta Center
Tue 02:51:39 PM 35.0664 -81.8436 155° Southeast 506 582 34,000 -500 Descending Atlanta Center
Tue 02:52:39 PM 34.9400 -81.7686 154° Southeast 500 575 34,000  Level Atlanta Center
Tue 02:53:39 PM 34.8156 -81.7011 156° South 500 575 34,000 -1,043 Level Atlanta Center
Tue 02:56:06 PM 34.5217 -81.5317 155° Southeast 490 564 30,400 -1,826 Descending Jacksonville Center
Tue 02:57:06 PM 34.3958 -81.4608 155° Southeast 490 564 27,700 -2,500 Descending Jacksonville Center
Tue 02:58:06 PM 34.2697 -81.3875 154° Southeast 490 564 25,400 -1,835 Descending Jacksonville Center
Tue 02:59:07 PM 34.1500 -81.3192 155° Southeast 490 564 24,000 -1,100 Descending Jacksonville Center
Tue 03:00:06 PM 34.0303 -81.2511 155° Southeast 482 555 23,200 -1,412 Descending Jacksonville Center
Tue 03:01:06 PM 33.9147 -81.1858 155° Southeast 477 549 21,200 -1,983 Descending Jacksonville Center
Tue 03:02:07 PM 33.8011 -81.1231 155° Southeast 459 528 19,200 -2,150 Descending Jacksonville Center
Tue 03:03:06 PM 33.6811 -81.0581 156° South 442 509 16,900 -2,168 Descending Jacksonville Center
Tue 03:04:06 PM 33.5761 -81.0031 156° South 431 496 14,900 -2,000 Descending Jacksonville Center
Tue 03:05:06 PM 33.4728 -80.9453 155° Southeast 419 482 12,900 -1,950 Descending Jacksonville Center
Tue 03:06:06 PM 33.3719 -80.8903 156° South 414 476 11,000 -950 Descending Jacksonville Center
Tue 03:07:06 PM 33.2750 -80.8378 156° South 397 457 11,000 -99 Level Jacksonville Center
Tue 03:08:07 PM 33.1761 -80.7831 155° Southeast 397 457 10,800 -1,550 Descending Jacksonville Center
Tue 03:09:06 PM 33.0894 -80.7306 153° Southeast 378 435 7,900 -3,126 Descending Jacksonville Center
Tue 03:10:06 PM 33.0278 -80.6603 136° Southeast 330 380 4,600 -2,579 Descending Jacksonville Center
Tue 03:11:07 PM 32.9744 -80.5947 134° Southeast 307 353 2,700 2,200 Descending Jacksonville Center
Tue 03:12:06 PM 32.9106 -80.5294 139° Southeast 307 353 9,000 3,176 Climbing Jacksonville Center
Tue 03:13:06 PM 32.8467 -80.4619 138° Southeast 307 353 9,000  Level Jacksonville Center
Tue 03:14:06 PM 32.7828 -80.3969 139° Southeast 307 353 9,000  Level Jacksonville Center
Tue 03:15:06 PM 32.7444 -80.3561 138° Southeast 307 353 9,000  Level Jacksonville Center
Tue 03:18:00 PM 32.8833 -80.5794 307° West  Level FlightAware Approximate
Tue 03:25:00 PM 32.9167 -80.6333 308° West  Level FlightAware Approximate
Tue 03:26:00 PM 32.9210 -80.6406 308° West  Level Estimated
Tue 03:27:00 PM 32.9210 -80.6406 308° West  Level Estimated
Tue 03:28:00 PM 32.9210 -80.6406 308° West  Level Estimated
Tue 03:29:00 PM 32.9210 -80.6406 308° West  Level Estimated
Tue 03:30:00 PM 32.9210 -80.6406 308° West  Level Estimated
Tue 03:31:00 PM 32.9210 -80.6406 308° West  Level Estimated

Login

Don't have an account? Register now (free) for customized features, flight alerts, and more!